Aviation Digital Data Service (ADDS)

Output produced by METARs form (1729 UTC 01 March 2021)
found at http://aviationweather.gov/metar/data/
 
METAR text: KEIK 011715Z AUTO 00000KT 10SM CLR 02/M13 A3031 RMK AO2 T00171131 PWINO
Conditions at: KEIK (ERIE MUNI , CO, US) observed 1715 UTC 01 March 2021
Temperature: 1.7°C (35°F)
Dewpoint: -13.1°C ( 8°F) [RH = 32%]
Pressure (altimeter): 30.31 inches Hg (1026.5 mb)
Winds: calm
Visibility: 10 or more miles (16+ km)
Ceiling: at least 12,000 feet AGL
Clouds: sky clear below 12,000 feet AGL
Weather: automated observation with no human augmentation;
there may or may not be significant weather present at this time

METAR text: KEIK 011655Z AUTO 00000KT 10SM CLR 01/M13 A3032 RMK AO2 T00081128 PWINO
Conditions at: KEIK (ERIE MUNI , CO, US) observed 1655 UTC 01 March 2021
Temperature: 0.8°C (33°F)
Dewpoint: -12.8°C ( 9°F) [RH = 35%]
Pressure (altimeter): 30.32 inches Hg (1026.8 mb)
Winds: calm
Visibility: 10 or more miles (16+ km)
Ceiling: at least 12,000 feet AGL
Clouds: sky clear below 12,000 feet AGL
Weather: automated observation with no human augmentation;
there may or may not be significant weather present at this time

METAR text: KEIK 011635Z AUTO 00000KT 10SM CLR 00/M12 A3031 RMK AO2 T00031118 PWINO
Conditions at: KEIK (ERIE MUNI , CO, US) observed 1635 UTC 01 March 2021
Temperature: 0.3°C (33°F)
Dewpoint: -11.8°C (11°F) [RH = 40%]
Pressure (altimeter): 30.31 inches Hg (1026.5 mb)
Winds: calm
Visibility: 10 or more miles (16+ km)
Ceiling: at least 12,000 feet AGL
Clouds: sky clear below 12,000 feet AGL
Weather: automated observation with no human augmentation;
there may or may not be significant weather present at this time